createdAt,value
2023-06-13T00:02:02.777Z,100.00
2023-06-13T00:04:31.558Z,100.00
2023-06-13T00:07:01.688Z,100.00
2023-06-13T00:09:29.962Z,100.00
2023-06-13T00:11:57.592Z,100.00
2023-06-13T00:14:25.250Z,100.00
2023-06-13T00:16:51.966Z,100.00
2023-06-13T00:19:20.034Z,100.00
2023-06-13T00:21:47.077Z,100.00
2023-06-13T00:24:14.159Z,100.00
2023-06-13T00:26:40.926Z,100.00
2023-06-13T00:29:07.549Z,100.00
2023-06-13T00:31:34.524Z,100.00
2023-06-13T00:34:02.003Z,100.00
2023-06-13T00:36:28.963Z,100.00
2023-06-13T00:38:58.527Z,100.00
2023-06-13T00:41:25.680Z,100.00
2023-06-13T00:43:52.897Z,100.00
2023-06-13T00:46:30.030Z,100.00
2023-06-13T00:48:59.117Z,100.00
2023-06-13T00:51:29.181Z,100.00
2023-06-13T00:53:58.535Z,100.00
2023-06-13T00:56:30.449Z,100.00
2023-06-13T00:59:01.626Z,100.00
2023-06-13T01:01:31.593Z,100.00
2023-06-13T01:04:01.020Z,100.00
2023-06-13T01:06:31.806Z,100.00
2023-06-13T01:09:01.666Z,100.00
2023-06-13T01:11:49.045Z,100.00
2023-06-13T01:14:41.702Z,100.00
2023-06-13T01:17:42.470Z,100.00
2023-06-13T01:20:15.731Z,100.00
2023-06-13T01:22:46.383Z,100.00
2023-06-13T01:25:25.071Z,100.00
2023-06-13T01:27:55.414Z,100.00
2023-06-13T01:30:23.233Z,100.00
2023-06-13T01:32:52.496Z,100.00
2023-06-13T01:35:20.345Z,100.00
2023-06-13T01:37:47.054Z,100.00
2023-06-13T01:40:16.207Z,100.00
2023-06-13T01:42:43.069Z,100.00
2023-06-13T01:45:10.864Z,100.00
2023-06-13T01:47:55.764Z,100.00
2023-06-13T01:50:32.156Z,100.00
2023-06-13T01:53:11.031Z,100.00
2023-06-13T01:55:44.242Z,100.00
2023-06-13T01:58:57.031Z,100.00
2023-06-13T02:01:26.710Z,100.00
2023-06-13T02:03:53.516Z,100.00
2023-06-13T02:06:20.138Z,100.00
2023-06-13T02:08:46.927Z,100.00
2023-06-13T02:11:13.901Z,100.00
2023-06-13T02:13:40.686Z,100.00
2023-06-13T02:16:07.474Z,100.00
2023-06-13T02:18:34.197Z,100.00
2023-06-13T02:21:00.828Z,100.00
2023-06-13T02:23:27.427Z,100.00
2023-06-13T02:25:54.071Z,100.00
2023-06-13T02:28:20.701Z,100.00
2023-06-13T02:30:48.194Z,100.00
2023-06-13T02:33:16.262Z,100.00
2023-06-13T02:35:43.708Z,100.00
2023-06-13T02:38:10.369Z,100.00
2023-06-13T02:40:39.032Z,100.00
2023-06-13T02:43:05.723Z,100.00
2023-06-13T02:45:32.738Z,100.00
2023-06-13T02:47:59.495Z,100.00
2023-06-13T02:50:26.249Z,100.00
2023-06-13T02:52:53.292Z,100.00
2023-06-13T02:55:20.028Z,100.00
2023-06-13T02:57:46.624Z,100.00
2023-06-13T03:00:16.613Z,100.00
2023-06-13T03:02:45.037Z,100.00
2023-06-13T03:05:15.499Z,100.00
2023-06-13T03:07:44.476Z,100.00
2023-06-13T03:10:11.637Z,100.00
2023-06-13T03:12:38.998Z,100.00
2023-06-13T03:15:06.454Z,100.00
2023-06-13T03:17:33.157Z,100.00
2023-06-13T03:20:04.961Z,100.00
2023-06-13T03:22:32.741Z,100.00
2023-06-13T03:25:04.049Z,100.00
2023-06-13T03:27:30.692Z,100.00
2023-06-13T03:29:57.296Z,100.00
2023-06-13T03:32:24.035Z,100.00
2023-06-13T03:34:53.967Z,100.00
2023-06-13T03:37:21.323Z,100.00
2023-06-13T03:39:47.968Z,100.00
2023-06-13T03:42:14.650Z,100.00
2023-06-13T03:44:47.780Z,100.00
2023-06-13T03:47:15.019Z,100.00
2023-06-13T03:49:42.167Z,100.00
2023-06-13T03:52:08.814Z,100.00
2023-06-13T03:54:35.615Z,100.00
2023-06-13T03:57:02.305Z,100.00
2023-06-13T03:59:28.939Z,100.00
2023-06-13T04:01:55.638Z,100.00
2023-06-13T04:04:22.818Z,100.00
2023-06-13T04:06:50.424Z,100.00
2023-06-13T04:09:17.198Z,100.00
2023-06-13T04:11:43.861Z,100.00
2023-06-13T04:14:10.531Z,100.00
2023-06-13T04:16:37.191Z,100.00
2023-06-13T04:19:03.906Z,100.00
2023-06-13T04:21:30.523Z,100.00
2023-06-13T04:23:57.921Z,100.00
2023-06-13T04:26:25.096Z,100.00
2023-06-13T04:28:51.990Z,100.00
2023-06-13T04:31:19.701Z,100.00
2023-06-13T04:33:47.460Z,100.00
2023-06-13T04:36:14.530Z,100.00
2023-06-13T04:38:41.869Z,100.00
2023-06-13T04:41:11.675Z,100.00
2023-06-13T04:43:40.145Z,100.00
2023-06-13T04:46:09.949Z,100.00
2023-06-13T04:48:37.442Z,100.00
2023-06-13T04:51:10.508Z,100.00
2023-06-13T04:53:39.189Z,100.00
2023-06-13T04:56:07.707Z,100.00
2023-06-13T04:58:34.331Z,100.00
2023-06-13T05:01:01.100Z,100.00
2023-06-13T05:03:28.345Z,100.00
2023-06-13T05:05:55.038Z,100.00
2023-06-13T05:08:22.662Z,100.00
2023-06-13T05:10:49.333Z,100.00
2023-06-13T05:13:16.305Z,100.00
2023-06-13T05:15:48.736Z,100.00
2023-06-13T05:18:15.956Z,100.00
2023-06-13T05:20:43.288Z,100.00
2023-06-13T05:23:11.889Z,100.00
2023-06-13T05:25:38.562Z,100.00
2023-06-13T05:28:05.488Z,100.00
2023-06-13T05:30:32.202Z,100.00
2023-06-13T05:32:58.926Z,100.00
2023-06-13T05:35:25.709Z,100.00
2023-06-13T05:37:52.726Z,100.00
2023-06-13T05:40:20.152Z,100.00
2023-06-13T05:42:47.301Z,100.00
2023-06-13T05:45:14.178Z,100.00
2023-06-13T05:47:40.880Z,100.00
2023-06-13T05:50:07.849Z,100.00
2023-06-13T05:52:35.135Z,100.00
2023-06-13T05:55:02.906Z,100.00
2023-06-13T05:57:40.477Z,100.00
2023-06-13T06:00:14.256Z,100.00
2023-06-13T06:02:43.200Z,100.00
2023-06-13T06:05:10.195Z,100.00
2023-06-13T06:07:37.141Z,100.00
2023-06-13T06:10:05.019Z,100.00
2023-06-13T06:12:31.653Z,100.00
2023-06-13T06:14:58.417Z,100.00
2023-06-13T06:17:25.212Z,100.00
2023-06-13T06:19:51.952Z,100.00
2023-06-13T06:22:18.659Z,100.00
2023-06-13T06:24:45.391Z,100.00
2023-06-13T06:27:12.419Z,100.00
2023-06-13T06:29:45.758Z,100.00
2023-06-13T06:32:12.429Z,100.00
2023-06-13T06:34:39.165Z,100.00
2023-06-13T06:37:06.018Z,100.00
2023-06-13T06:39:33.272Z,100.00
2023-06-13T06:41:59.903Z,100.00
2023-06-13T06:44:39.884Z,100.00
2023-06-13T06:47:10.836Z,98.11
2023-06-13T06:49:37.445Z,97.63
2023-06-13T06:52:04.421Z,99.46
2023-06-13T06:54:32.080Z,92.58
2023-06-13T06:56:58.699Z,92.93
2023-06-13T06:59:25.327Z,89.65
2023-06-13T07:01:52.221Z,91.28
2023-06-13T07:04:19.041Z,90.62
2023-06-13T07:06:46.205Z,92.19
2023-06-13T07:09:12.873Z,91.20
2023-06-13T07:11:39.565Z,89.59
2023-06-13T07:14:06.251Z,84.52
2023-06-13T07:16:33.070Z,89.00
2023-06-13T07:18:59.730Z,86.04
2023-06-13T07:21:27.215Z,84.12
2023-06-13T07:24:06.964Z,86.27
2023-06-13T07:26:34.942Z,83.85
2023-06-13T07:29:01.600Z,83.11
2023-06-13T07:31:28.429Z,81.15
2023-06-13T07:33:55.535Z,81.14
2023-06-13T07:36:22.414Z,82.76
2023-06-13T07:38:49.029Z,80.10
2023-06-13T07:41:15.666Z,84.95
2023-06-13T07:43:42.408Z,88.19
2023-06-13T07:46:09.135Z,82.05
2023-06-13T07:48:36.025Z,84.10
2023-06-13T07:51:03.561Z,80.46
2023-06-13T07:53:30.172Z,77.28
2023-06-13T07:55:57.222Z,76.31
2023-06-13T07:58:24.010Z,76.65
2023-06-13T08:00:50.790Z,80.84
2023-06-13T08:03:17.633Z,83.63
2023-06-13T08:05:44.539Z,83.40
2023-06-13T08:08:11.251Z,83.07
2023-06-13T08:10:38.019Z,86.30
2023-06-13T08:13:04.780Z,88.51
2023-06-13T08:15:31.436Z,85.23
2023-06-13T08:17:59.016Z,84.94
2023-06-13T08:20:26.177Z,85.50
2023-06-13T08:22:52.878Z,87.59
2023-06-13T08:25:19.635Z,85.45
2023-06-13T08:27:47.342Z,84.34
2023-06-13T08:30:15.346Z,85.88
2023-06-13T08:32:42.840Z,85.07
2023-06-13T08:35:10.187Z,84.39
2023-06-13T08:37:37.254Z,83.53
2023-06-13T08:40:11.412Z,83.89
2023-06-13T08:42:39.021Z,88.88
2023-06-13T08:45:07.279Z,84.89
2023-06-13T08:47:37.645Z,83.71
2023-06-13T08:50:06.070Z,80.94
2023-06-13T08:52:41.678Z,84.76
2023-06-13T08:55:45.920Z,87.26
2023-06-13T08:58:03.923Z,86.04
2023-06-13T09:00:35.198Z,85.79
2023-06-13T09:03:05.188Z,86.55
2023-06-13T09:05:33.462Z,88.24
2023-06-13T09:08:23.496Z,85.05
2023-06-13T09:10:48.474Z,80.75
2023-06-13T09:13:17.501Z,79.51
2023-06-13T09:15:46.085Z,80.64
2023-06-13T09:18:13.167Z,82.47
2023-06-13T09:20:39.856Z,81.30
2023-06-13T09:23:06.716Z,80.01
2023-06-13T09:25:37.508Z,81.96
2023-06-13T09:28:33.926Z,79.74
2023-06-13T09:31:01.067Z,79.83
2023-06-13T09:33:28.225Z,78.05
2023-06-13T09:35:55.259Z,74.57
2023-06-13T09:38:27.961Z,65.67
2023-06-13T09:40:56.887Z,69.47
2023-06-13T09:43:24.538Z,66.54
2023-06-13T09:45:52.547Z,63.50
2023-06-13T09:48:19.489Z,63.34
2023-06-13T09:50:46.328Z,63.34
2023-06-13T09:53:13.337Z,61.70
2023-06-13T09:55:40.062Z,62.17
2023-06-13T09:58:22.370Z,63.47
2023-06-13T10:01:00.816Z,58.93
2023-06-13T10:03:31.628Z,64.28
2023-06-13T10:06:00.038Z,59.94
2023-06-13T10:08:26.783Z,63.20
2023-06-13T10:11:01.081Z,66.00
2023-06-13T10:13:30.748Z,62.10
2023-06-13T10:15:59.474Z,62.19
2023-06-13T10:18:38.333Z,68.11
2023-06-13T10:21:07.615Z,64.62
2023-06-13T10:23:41.840Z,64.00
2023-06-13T10:26:16.338Z,61.24
2023-06-13T10:28:51.822Z,64.02
2023-06-13T10:31:27.386Z,64.56
2023-06-13T10:34:01.407Z,60.20
2023-06-13T10:37:07.194Z,66.24
2023-06-13T10:40:06.038Z,64.68
2023-06-13T10:42:42.049Z,61.70
2023-06-13T10:45:23.055Z,62.03
2023-06-13T10:47:49.899Z,59.71
2023-06-13T10:50:17.423Z,60.63
2023-06-13T10:52:46.955Z,62.91
2023-06-13T10:55:23.250Z,58.72
2023-06-13T10:57:52.042Z,61.52
2023-06-13T11:00:28.819Z,60.92
2023-06-13T11:03:14.637Z,59.56
2023-06-13T11:05:49.763Z,61.19
2023-06-13T11:08:20.443Z,58.38
2023-06-13T11:10:49.001Z,59.18
2023-06-13T11:13:26.559Z,61.12
2023-06-13T11:15:58.097Z,60.56
2023-06-13T11:18:31.113Z,61.20
2023-06-13T11:20:59.146Z,57.88
2023-06-13T11:23:39.877Z,56.93
2023-06-13T11:26:06.924Z,60.50
2023-06-13T11:28:33.917Z,59.67
2023-06-13T11:31:05.648Z,59.53
2023-06-13T11:33:39.477Z,57.62
2023-06-13T11:36:06.448Z,58.07
2023-06-13T11:38:38.972Z,60.76
2023-06-13T11:41:06.505Z,59.13
2023-06-13T11:43:34.811Z,62.57
2023-06-13T11:46:02.706Z,66.70
2023-06-13T11:48:42.343Z,62.00
2023-06-13T11:51:16.688Z,59.40
2023-06-13T11:53:55.704Z,58.25
2023-06-13T11:56:25.096Z,53.94
2023-06-13T11:58:53.324Z,57.44
2023-06-13T12:01:23.499Z,59.53
2023-06-13T12:03:52.239Z,59.02
2023-06-13T12:06:19.889Z,58.13
2023-06-13T12:08:47.284Z,60.38
2023-06-13T12:11:25.631Z,56.73
2023-06-13T12:13:57.682Z,59.39
2023-06-13T12:16:32.978Z,59.36
2023-06-13T12:19:01.476Z,57.49
2023-06-13T12:21:33.229Z,57.97
2023-06-13T12:24:03.026Z,56.55
2023-06-13T12:26:34.226Z,56.30
2023-06-13T12:29:13.029Z,56.75
2023-06-13T12:31:45.858Z,56.42
2023-06-13T12:34:28.395Z,59.38
2023-06-13T12:37:00.959Z,60.78
2023-06-13T12:39:31.410Z,55.15
2023-06-13T12:42:02.140Z,55.16
2023-06-13T12:44:32.482Z,56.85
2023-06-13T12:47:00.782Z,61.44
2023-06-13T12:49:27.515Z,53.48
2023-06-13T12:51:54.127Z,57.59
2023-06-13T12:54:26.936Z,61.10
2023-06-13T12:57:01.082Z,50.17
2023-06-13T12:59:38.662Z,52.05
2023-06-13T13:02:08.424Z,56.82
2023-06-13T13:04:37.024Z,60.89
2023-06-13T13:07:05.238Z,62.99
2023-06-13T13:09:32.895Z,62.68
2023-06-13T13:12:00.219Z,52.67
2023-06-13T13:14:27.921Z,52.79
2023-06-13T13:16:55.388Z,51.15
2023-06-13T13:19:22.468Z,52.10
2023-06-13T13:21:50.379Z,53.04
2023-06-13T13:24:19.497Z,54.27
2023-06-13T13:26:48.470Z,49.56
2023-06-13T13:29:16.637Z,55.99
2023-06-13T13:31:43.409Z,51.73
2023-06-13T13:34:22.773Z,54.31
2023-06-13T13:36:50.901Z,51.87
2023-06-13T13:39:18.178Z,51.20
2023-06-13T13:41:45.204Z,57.57
2023-06-13T13:44:12.293Z,57.02
2023-06-13T13:46:39.050Z,54.07
2023-06-13T13:49:05.866Z,51.76
2023-06-13T13:51:33.496Z,55.25
2023-06-13T13:54:00.453Z,55.07
2023-06-13T13:56:27.925Z,53.01
2023-06-13T13:58:54.814Z,53.48
2023-06-13T14:01:21.972Z,55.94
2023-06-13T14:03:49.540Z,59.04
2023-06-13T14:06:16.942Z,55.81
2023-06-13T14:08:43.705Z,53.81
2023-06-13T14:11:10.346Z,59.69
2023-06-13T14:13:37.177Z,59.46
2023-06-13T14:16:04.934Z,63.14
2023-06-13T14:18:31.726Z,65.44
2023-06-13T14:20:59.852Z,64.83
2023-06-13T14:23:26.628Z,64.88
2023-06-13T14:25:53.362Z,60.49
2023-06-13T14:28:20.267Z,57.97
2023-06-13T14:30:46.988Z,62.49
2023-06-13T14:33:13.815Z,64.49
2023-06-13T14:35:40.460Z,58.08
2023-06-13T14:38:07.080Z,59.41
2023-06-13T14:40:33.972Z,57.43
2023-06-13T14:43:01.418Z,54.30
2023-06-13T14:45:28.233Z,61.33
2023-06-13T14:47:55.619Z,55.81
2023-06-13T14:50:23.082Z,59.48
2023-06-13T14:52:49.894Z,63.69
2023-06-13T14:55:16.589Z,60.83
2023-06-13T14:57:43.500Z,55.90
2023-06-13T15:00:11.816Z,57.29
2023-06-13T15:02:39.044Z,60.71
2023-06-13T15:05:06.505Z,58.24
2023-06-13T15:07:33.920Z,62.89
2023-06-13T15:10:00.893Z,58.83
2023-06-13T15:12:28.272Z,65.34
2023-06-13T15:14:55.240Z,67.58
2023-06-13T15:17:22.172Z,61.42
2023-06-13T15:19:49.070Z,58.81
2023-06-13T15:22:15.804Z,65.67
2023-06-13T15:24:42.447Z,66.04
2023-06-13T15:27:09.119Z,69.16
2023-06-13T15:29:35.886Z,69.76
2023-06-13T15:32:02.604Z,72.00
2023-06-13T15:34:30.843Z,70.00
2023-06-13T15:36:59.031Z,65.42
2023-06-13T15:39:25.657Z,63.95
2023-06-13T15:41:52.652Z,58.21
2023-06-13T15:44:19.388Z,61.33
2023-06-13T15:46:47.148Z,65.39
2023-06-13T15:49:13.781Z,66.76
2023-06-13T15:51:40.554Z,69.94
2023-06-13T15:54:07.151Z,71.62
2023-06-13T15:56:34.269Z,68.72
2023-06-13T15:59:01.360Z,71.15
2023-06-13T16:01:28.390Z,73.77
2023-06-13T16:03:55.380Z,75.78
2023-06-13T16:06:22.295Z,74.70
2023-06-13T16:08:49.731Z,74.79
2023-06-13T16:11:16.609Z,68.13
2023-06-13T16:13:43.398Z,69.99
2023-06-13T16:16:10.055Z,70.75
2023-06-13T16:18:38.383Z,62.49
2023-06-13T16:21:05.258Z,67.47
2023-06-13T16:23:32.226Z,62.11
2023-06-13T16:25:58.930Z,61.19
2023-06-13T16:28:25.617Z,57.69
2023-06-13T16:30:53.148Z,56.91
2023-06-13T16:33:20.038Z,61.02
2023-06-13T16:35:47.209Z,61.95
2023-06-13T16:38:15.455Z,61.16
2023-06-13T16:40:43.144Z,64.19
2023-06-13T16:43:10.309Z,68.33
2023-06-13T16:45:37.667Z,68.80
2023-06-13T16:48:04.925Z,68.79
2023-06-13T16:50:31.926Z,61.51
2023-06-13T16:53:00.214Z,63.54
2023-06-13T16:55:28.803Z,64.39
2023-06-13T16:57:56.485Z,67.49
2023-06-13T17:00:23.695Z,67.60
2023-06-13T17:02:50.406Z,64.40
2023-06-13T17:05:17.454Z,67.84
2023-06-13T17:07:44.589Z,68.63
2023-06-13T17:10:11.429Z,66.61
2023-06-13T17:12:43.543Z,68.39
2023-06-13T17:15:11.180Z,67.93
2023-06-13T17:17:38.115Z,68.97
2023-06-13T17:20:08.842Z,71.63
2023-06-13T17:22:35.897Z,72.51
2023-06-13T17:25:02.646Z,72.87
2023-06-13T17:27:29.341Z,75.06
2023-06-13T17:29:56.270Z,75.93
2023-06-13T17:32:23.076Z,75.11
2023-06-13T17:34:50.049Z,68.24
2023-06-13T17:37:18.350Z,70.30
2023-06-13T17:39:45.004Z,70.37
2023-06-13T17:42:12.503Z,70.49
2023-06-13T17:44:39.336Z,65.45
2023-06-13T17:47:07.656Z,67.86
2023-06-13T17:49:34.542Z,70.53
2023-06-13T17:52:01.387Z,71.15
2023-06-13T17:54:28.072Z,71.45
2023-06-13T17:56:54.777Z,70.34
2023-06-13T17:59:21.554Z,74.71
2023-06-13T18:01:49.615Z,75.68
2023-06-13T18:04:17.487Z,77.58
2023-06-13T18:06:44.274Z,80.88
2023-06-13T18:09:11.895Z,80.03
2023-06-13T18:11:38.856Z,79.53
2023-06-13T18:14:09.200Z,81.37
2023-06-13T18:16:37.031Z,82.15
2023-06-13T18:19:08.764Z,82.53
2023-06-13T18:21:35.488Z,83.19
2023-06-13T18:24:02.324Z,83.09
2023-06-13T18:26:29.151Z,84.11
2023-06-13T18:28:56.063Z,82.70
2023-06-13T18:31:22.919Z,84.70
2023-06-13T18:33:49.681Z,86.84
2023-06-13T18:36:17.013Z,87.47
2023-06-13T18:38:43.646Z,85.99
2023-06-13T18:41:10.303Z,86.96
2023-06-13T18:43:36.986Z,87.74
2023-06-13T18:46:03.627Z,89.89
2023-06-13T18:48:31.289Z,90.62
2023-06-13T18:50:58.322Z,91.01
2023-06-13T18:53:25.196Z,91.68
2023-06-13T18:55:52.153Z,93.17
2023-06-13T18:58:18.899Z,91.62
2023-06-13T19:00:46.032Z,88.71
2023-06-13T19:03:16.595Z,84.60
2023-06-13T19:05:43.824Z,82.99
2023-06-13T19:08:10.653Z,84.72
2023-06-13T19:10:37.914Z,87.60
2023-06-13T19:13:04.937Z,87.84
2023-06-13T19:15:33.629Z,87.74
2023-06-13T19:18:00.595Z,87.96
2023-06-13T19:20:28.088Z,90.86
2023-06-13T19:22:54.905Z,93.86
2023-06-13T19:25:26.211Z,93.84
2023-06-13T19:27:58.255Z,94.69
2023-06-13T19:30:27.771Z,95.98
2023-06-13T19:32:55.532Z,95.89
2023-06-13T19:35:23.175Z,96.02
2023-06-13T19:37:49.833Z,95.11
2023-06-13T19:40:19.612Z,95.85
2023-06-13T19:42:48.021Z,95.71
2023-06-13T19:45:15.233Z,94.83
2023-06-13T19:47:42.544Z,96.75
2023-06-13T19:50:10.064Z,95.68
2023-06-13T19:52:37.424Z,94.80
2023-06-13T19:55:04.881Z,99.58
2023-06-13T19:57:32.400Z,97.83
2023-06-13T19:59:59.173Z,98.72
2023-06-13T20:02:25.814Z,100.00
2023-06-13T20:04:52.738Z,100.00
2023-06-13T20:07:19.495Z,100.00
2023-06-13T20:09:46.168Z,100.00
2023-06-13T20:12:12.921Z,100.00
2023-06-13T20:14:39.618Z,98.95
2023-06-13T20:17:07.180Z,99.41
2023-06-13T20:19:34.076Z,99.32
2023-06-13T20:22:01.698Z,99.42
2023-06-13T20:24:28.386Z,98.97
2023-06-13T20:26:55.008Z,98.52
2023-06-13T20:29:21.710Z,97.76
2023-06-13T20:31:48.694Z,97.81
2023-06-13T20:34:17.491Z,98.19
2023-06-13T20:36:44.367Z,99.10
2023-06-13T20:39:11.063Z,98.93
2023-06-13T20:41:38.667Z,98.29
2023-06-13T20:44:08.579Z,98.54
2023-06-13T20:46:38.880Z,100.00
2023-06-13T20:49:05.643Z,100.00
2023-06-13T20:51:36.301Z,100.00
2023-06-13T20:54:03.289Z,100.00
2023-06-13T20:56:29.944Z,100.00
2023-06-13T20:58:57.928Z,100.00
2023-06-13T21:01:24.737Z,100.00
2023-06-13T21:03:51.932Z,100.00
2023-06-13T21:06:20.525Z,99.71
2023-06-13T21:08:47.257Z,99.77
2023-06-13T21:11:14.367Z,100.00
2023-06-13T21:13:41.160Z,100.00
2023-06-13T21:16:08.679Z,100.00
2023-06-13T21:18:36.104Z,100.00
2023-06-13T21:21:02.734Z,100.00
2023-06-13T21:23:29.952Z,100.00
2023-06-13T21:25:56.769Z,100.00
2023-06-13T21:28:23.393Z,100.00
2023-06-13T21:30:50.012Z,100.00
2023-06-13T21:33:19.064Z,100.00
2023-06-13T21:35:46.720Z,100.00
2023-06-13T21:38:13.453Z,100.00
2023-06-13T21:40:40.087Z,100.00
2023-06-13T21:43:06.696Z,100.00
2023-06-13T21:45:33.330Z,100.00
2023-06-13T21:48:00.775Z,100.00
2023-06-13T21:50:27.695Z,100.00
2023-06-13T21:52:54.436Z,100.00
2023-06-13T21:55:21.455Z,100.00
2023-06-13T21:57:48.380Z,100.00
2023-06-13T22:00:17.872Z,100.00
2023-06-13T22:02:45.946Z,100.00
2023-06-13T22:05:13.463Z,100.00
2023-06-13T22:07:40.940Z,100.00
2023-06-13T22:10:08.157Z,100.00
2023-06-13T22:12:35.916Z,100.00
2023-06-13T22:15:03.520Z,100.00
2023-06-13T22:17:30.841Z,100.00
2023-06-13T22:20:01.175Z,100.00
2023-06-13T22:22:30.885Z,100.00
2023-06-13T22:24:59.646Z,100.00
2023-06-13T22:27:26.698Z,100.00
2023-06-13T22:29:53.570Z,100.00
2023-06-13T22:32:20.952Z,100.00
2023-06-13T22:34:47.722Z,100.00
2023-06-13T22:37:14.630Z,100.00
2023-06-13T22:39:41.275Z,100.00
2023-06-13T22:42:08.817Z,100.00
2023-06-13T22:44:36.255Z,100.00
2023-06-13T22:47:03.681Z,100.00
2023-06-13T22:49:30.335Z,100.00
2023-06-13T22:51:57.634Z,100.00
2023-06-13T22:54:24.635Z,100.00
2023-06-13T22:56:51.409Z,100.00
2023-06-13T22:59:19.040Z,100.00
2023-06-13T23:01:46.628Z,100.00
2023-06-13T23:04:13.545Z,100.00
2023-06-13T23:06:42.260Z,100.00
2023-06-13T23:09:09.981Z,100.00
2023-06-13T23:11:37.686Z,100.00
2023-06-13T23:14:04.333Z,100.00
2023-06-13T23:16:31.125Z,100.00
2023-06-13T23:18:58.255Z,100.00
2023-06-13T23:21:25.977Z,100.00
2023-06-13T23:23:52.805Z,100.00
2023-06-13T23:26:19.499Z,100.00
2023-06-13T23:28:46.154Z,100.00
2023-06-13T23:31:14.436Z,100.00
2023-06-13T23:33:44.090Z,100.00
2023-06-13T23:36:10.716Z,100.00
2023-06-13T23:38:38.636Z,100.00
2023-06-13T23:41:05.529Z,100.00
2023-06-13T23:43:32.211Z,100.00
2023-06-13T23:46:01.688Z,100.00
2023-06-13T23:48:29.644Z,100.00
2023-06-13T23:50:56.521Z,100.00
2023-06-13T23:53:23.610Z,100.00
2023-06-13T23:55:50.597Z,100.00
2023-06-13T23:58:18.663Z,100.00
